Atwood, Tennessee
Current Conditions -  °F | °C
As of 6:53 PM on Sunday 23 Nov 2014 (Local Time) from KMKL Reporting Station
Overcast Overcast  
Wind Chill: 61°   Ceiling: 1200
Heat Index: 61°   Visibility: 10mi
Dew Point: 58°   Wind: 16mph
Humidity: 90%   Direction: 230°SW
Pressure: 29.41"   Gusts: 24mph
Location:  35.97°N, 88.68°W
Report Text: KMKL 240053Z 23014G21KT 10SM OVC012 16/14 A2941 RMK AO2 PK WND 24028/0020 RAE00 SLP956 P0000 T01610144
Loading
Personal Weather Stations






























Interactive Weather Map New forecast layout! Learn more

10-Day Weather Forecast

Advertisements
Track Severe Weather on mobile